Terminal Aerodrome Forecast
Issued by NWS Charleston, WV

Current Version | Previous Version | Text Only | Print | Product List | Glossary Off
Versions: 1 2 3 4 5 6 7 8 9 10 11 12 13 14 15 16 17 18 19 20 21 22

000
FTUS41 KRLX 212008 AAA
TAFBKW
TAF AMD
KBKW 212008Z 2120/2218 29006KT 2SM SHRA OVC015
     FM212300 29008KT P6SM BKN035
     FM220500 30006KT P6SM SCT050
     FM221000 32005KT P6SM BKN008
     FM221400 31005KT P6SM SCT035
     FM221600 31006KT P6SM FEW250=

USA.gov is the U.S. government's official web portal to all federal, state and local government web resources and services.